sensor_id;sensor_type;location;lat;lon;timestamp;temperature;humidity
42347;DHT22;75728;51.856;6.314;2024-03-08T00:01:53;20.80;99.90
42347;DHT22;75728;51.856;6.314;2024-03-08T00:04:19;20.70;99.90
42347;DHT22;75728;51.856;6.314;2024-03-08T00:06:44;20.70;99.90
42347;DHT22;75728;51.856;6.314;2024-03-08T00:09:12;20.70;99.90
42347;DHT22;75728;51.856;6.314;2024-03-08T00:11:37;20.80;99.90
42347;DHT22;75728;51.856;6.314;2024-03-08T00:14:03;20.70;99.90
42347;DHT22;75728;51.856;6.314;2024-03-08T00:16:32;20.70;99.90
42347;DHT22;75728;51.856;6.314;2024-03-08T00:18:59;20.70;99.90
42347;DHT22;75728;51.856;6.314;2024-03-08T00:21:24;20.70;99.90
42347;DHT22;75728;51.856;6.314;2024-03-08T00:23:52;20.70;99.90
42347;DHT22;75728;51.856;6.314;2024-03-08T00:26:19;20.70;99.90
42347;DHT22;75728;51.856;6.314;2024-03-08T00:28:45;20.70;99.90
42347;DHT22;75728;51.856;6.314;2024-03-08T00:31:11;20.70;99.90
42347;DHT22;75728;51.856;6.314;2024-03-08T00:33:36;20.70;99.90
42347;DHT22;75728;51.856;6.314;2024-03-08T00:36:02;20.70;99.90
42347;DHT22;75728;51.856;6.314;2024-03-08T00:38:28;20.60;99.90
42347;DHT22;75728;51.856;6.314;2024-03-08T00:40:53;20.70;99.90
42347;DHT22;75728;51.856;6.314;2024-03-08T00:43:19;20.70;99.90
42347;DHT22;75728;51.856;6.314;2024-03-08T00:45:44;20.70;99.90
42347;DHT22;75728;51.856;6.314;2024-03-08T00:48:10;20.60;99.90
42347;DHT22;75728;51.856;6.314;2024-03-08T00:50:36;20.60;99.90
42347;DHT22;75728;51.856;6.314;2024-03-08T00:53:02;20.60;99.90
42347;DHT22;75728;51.856;6.314;2024-03-08T00:55:30;20.60;99.90
42347;DHT22;75728;51.856;6.314;2024-03-08T00:57:55;20.60;99.90
42347;DHT22;75728;51.856;6.314;2024-03-08T01:00:21;20.60;99.90
42347;DHT22;75728;51.856;6.314;2024-03-08T01:02:47;20.60;99.90
42347;DHT22;75728;51.856;6.314;2024-03-08T01:05:13;20.60;99.90
42347;DHT22;75728;51.856;6.314;2024-03-08T01:07:39;20.60;99.90
42347;DHT22;75728;51.856;6.314;2024-03-08T01:10:05;20.50;99.90
42347;DHT22;75728;51.856;6.314;2024-03-08T01:12:35;20.60;99.90
42347;DHT22;75728;51.856;6.314;2024-03-08T01:15:01;20.50;99.90
42347;DHT22;75728;51.856;6.314;2024-03-08T01:17:26;20.50;99.90
42347;DHT22;75728;51.856;6.314;2024-03-08T01:19:52;20.50;99.90
42347;DHT22;75728;51.856;6.314;2024-03-08T01:22:19;20.50;99.90
42347;DHT22;75728;51.856;6.314;2024-03-08T01:24:45;20.50;99.90
42347;DHT22;75728;51.856;6.314;2024-03-08T01:27:11;20.50;99.90
42347;DHT22;75728;51.856;6.314;2024-03-08T01:29:37;20.50;99.90
42347;DHT22;75728;51.856;6.314;2024-03-08T01:32:03;20.50;99.90
42347;DHT22;75728;51.856;6.314;2024-03-08T01:34:29;20.50;99.90
42347;DHT22;75728;51.856;6.314;2024-03-08T01:36:55;20.50;99.90
42347;DHT22;75728;51.856;6.314;2024-03-08T01:39:22;20.50;99.90
42347;DHT22;75728;51.856;6.314;2024-03-08T01:41:47;20.50;99.90
42347;DHT22;75728;51.856;6.314;2024-03-08T01:44:13;20.50;99.90
42347;DHT22;75728;51.856;6.314;2024-03-08T01:46:46;20.50;99.90
42347;DHT22;75728;51.856;6.314;2024-03-08T01:49:12;20.50;99.90
42347;DHT22;75728;51.856;6.314;2024-03-08T01:51:40;20.50;99.90
42347;DHT22;75728;51.856;6.314;2024-03-08T01:54:07;20.50;99.90
42347;DHT22;75728;51.856;6.314;2024-03-08T01:56:36;20.50;99.90
42347;DHT22;75728;51.856;6.314;2024-03-08T01:59:03;20.50;99.90
42347;DHT22;75728;51.856;6.314;2024-03-08T02:01:29;20.50;99.90
42347;DHT22;75728;51.856;6.314;2024-03-08T02:03:55;20.40;99.90
42347;DHT22;75728;51.856;6.314;2024-03-08T02:06:21;20.50;99.90
42347;DHT22;75728;51.856;6.314;2024-03-08T02:08:46;20.50;99.90
42347;DHT22;75728;51.856;6.314;2024-03-08T02:11:13;20.50;99.90
42347;DHT22;75728;51.856;6.314;2024-03-08T02:13:39;20.40;99.90
42347;DHT22;75728;51.856;6.314;2024-03-08T02:16:05;20.50;99.90
42347;DHT22;75728;51.856;6.314;2024-03-08T02:18:33;20.40;99.90
42347;DHT22;75728;51.856;6.314;2024-03-08T02:21:01;20.40;99.90
42347;DHT22;75728;51.856;6.314;2024-03-08T02:23:27;20.40;99.90
42347;DHT22;75728;51.856;6.314;2024-03-08T02:25:54;20.40;99.90
42347;DHT22;75728;51.856;6.314;2024-03-08T02:28:20;20.40;99.90
42347;DHT22;75728;51.856;6.314;2024-03-08T02:30:47;20.40;99.90
42347;DHT22;75728;51.856;6.314;2024-03-08T02:33:17;20.40;99.90
42347;DHT22;75728;51.856;6.314;2024-03-08T02:35:46;20.40;99.90
42347;DHT22;75728;51.856;6.314;2024-03-08T02:38:17;20.40;99.90
42347;DHT22;75728;51.856;6.314;2024-03-08T02:40:44;20.40;99.90
42347;DHT22;75728;51.856;6.314;2024-03-08T02:43:11;20.40;99.90
42347;DHT22;75728;51.856;6.314;2024-03-08T02:45:37;20.40;99.90
42347;DHT22;75728;51.856;6.314;2024-03-08T02:48:04;20.30;99.90
42347;DHT22;75728;51.856;6.314;2024-03-08T02:50:32;20.30;99.90
42347;DHT22;75728;51.856;6.314;2024-03-08T02:52:57;20.40;99.90
42347;DHT22;75728;51.856;6.314;2024-03-08T02:55:23;20.30;99.90
42347;DHT22;75728;51.856;6.314;2024-03-08T02:57:52;20.30;99.90
42347;DHT22;75728;51.856;6.314;2024-03-08T03:00:18;20.30;99.90
42347;DHT22;75728;51.856;6.314;2024-03-08T03:02:45;20.30;99.90
42347;DHT22;75728;51.856;6.314;2024-03-08T03:05:11;20.30;99.90
42347;DHT22;75728;51.856;6.314;2024-03-08T03:07:37;20.30;99.90
42347;DHT22;75728;51.856;6.314;2024-03-08T03:10:03;20.30;99.90
42347;DHT22;75728;51.856;6.314;2024-03-08T03:12:30;20.30;99.90
42347;DHT22;75728;51.856;6.314;2024-03-08T03:14:56;20.30;99.90
42347;DHT22;75728;51.856;6.314;2024-03-08T03:17:23;20.30;99.90
42347;DHT22;75728;51.856;6.314;2024-03-08T03:19:50;20.20;99.90
42347;DHT22;75728;51.856;6.314;2024-03-08T03:22:17;20.30;99.90
42347;DHT22;75728;51.856;6.314;2024-03-08T03:24:44;20.30;99.90
42347;DHT22;75728;51.856;6.314;2024-03-08T03:27:09;20.30;99.90
42347;DHT22;75728;51.856;6.314;2024-03-08T03:29:39;20.30;99.90
42347;DHT22;75728;51.856;6.314;2024-03-08T03:32:11;20.30;99.90
42347;DHT22;75728;51.856;6.314;2024-03-08T03:34:38;20.30;99.90
42347;DHT22;75728;51.856;6.314;2024-03-08T03:37:07;20.30;99.90
42347;DHT22;75728;51.856;6.314;2024-03-08T03:39:34;20.30;99.90
42347;DHT22;75728;51.856;6.314;2024-03-08T03:42:03;20.30;99.90
42347;DHT22;75728;51.856;6.314;2024-03-08T03:44:28;20.30;99.90
42347;DHT22;75728;51.856;6.314;2024-03-08T03:46:54;20.30;99.90
42347;DHT22;75728;51.856;6.314;2024-03-08T03:49:20;20.30;99.90
42347;DHT22;75728;51.856;6.314;2024-03-08T03:51:46;20.30;99.90
42347;DHT22;75728;51.856;6.314;2024-03-08T03:54:12;20.30;99.90
42347;DHT22;75728;51.856;6.314;2024-03-08T03:56:38;20.30;99.90
42347;DHT22;75728;51.856;6.314;2024-03-08T03:59:06;20.30;99.90
42347;DHT22;75728;51.856;6.314;2024-03-08T04:01:33;20.30;99.90
42347;DHT22;75728;51.856;6.314;2024-03-08T04:03:59;20.30;99.90
42347;DHT22;75728;51.856;6.314;2024-03-08T04:06:25;20.30;99.90
42347;DHT22;75728;51.856;6.314;2024-03-08T04:08:50;20.20;99.90
42347;DHT22;75728;51.856;6.314;2024-03-08T04:11:16;20.30;99.90
42347;DHT22;75728;51.856;6.314;2024-03-08T04:13:43;20.30;99.90
42347;DHT22;75728;51.856;6.314;2024-03-08T04:16:08;20.30;99.90
42347;DHT22;75728;51.856;6.314;2024-03-08T04:18:37;20.20;99.90
42347;DHT22;75728;51.856;6.314;2024-03-08T04:21:05;20.20;99.90
42347;DHT22;75728;51.856;6.314;2024-03-08T04:23:34;20.20;99.90
42347;DHT22;75728;51.856;6.314;2024-03-08T04:26:02;20.30;99.90
42347;DHT22;75728;51.856;6.314;2024-03-08T04:28:28;20.30;99.90
42347;DHT22;75728;51.856;6.314;2024-03-08T04:30:54;20.30;99.90
42347;DHT22;75728;51.856;6.314;2024-03-08T04:33:20;20.30;99.90
42347;DHT22;75728;51.856;6.314;2024-03-08T04:35:47;20.20;99.90
42347;DHT22;75728;51.856;6.314;2024-03-08T04:38:13;20.20;99.90
42347;DHT22;75728;51.856;6.314;2024-03-08T04:40:38;20.20;99.90
42347;DHT22;75728;51.856;6.314;2024-03-08T04:43:05;20.20;99.90
42347;DHT22;75728;51.856;6.314;2024-03-08T04:45:31;20.20;99.90
42347;DHT22;75728;51.856;6.314;2024-03-08T04:47:57;20.20;99.90
42347;DHT22;75728;51.856;6.314;2024-03-08T04:50:23;20.20;99.90
42347;DHT22;75728;51.856;6.314;2024-03-08T04:52:49;20.30;99.90
42347;DHT22;75728;51.856;6.314;2024-03-08T04:55:14;20.20;99.90
42347;DHT22;75728;51.856;6.314;2024-03-08T04:57:40;20.20;99.90
42347;DHT22;75728;51.856;6.314;2024-03-08T05:00:07;20.20;99.90
42347;DHT22;75728;51.856;6.314;2024-03-08T05:02:37;20.20;99.90
42347;DHT22;75728;51.856;6.314;2024-03-08T05:05:05;20.20;99.90
42347;DHT22;75728;51.856;6.314;2024-03-08T05:07:31;20.20;99.90
42347;DHT22;75728;51.856;6.314;2024-03-08T05:09:58;20.20;99.90
42347;DHT22;75728;51.856;6.314;2024-03-08T05:12:24;20.20;99.90
42347;DHT22;75728;51.856;6.314;2024-03-08T05:14:50;20.20;99.90
42347;DHT22;75728;51.856;6.314;2024-03-08T05:17:16;20.20;99.90
42347;DHT22;75728;51.856;6.314;2024-03-08T05:19:44;20.20;99.90
42347;DHT22;75728;51.856;6.314;2024-03-08T05:22:10;20.20;99.90
42347;DHT22;75728;51.856;6.314;2024-03-08T05:24:36;20.20;99.90
42347;DHT22;75728;51.856;6.314;2024-03-08T05:27:02;20.20;99.90
42347;DHT22;75728;51.856;6.314;2024-03-08T05:29:29;20.20;99.90
42347;DHT22;75728;51.856;6.314;2024-03-08T05:31:55;20.20;99.90
42347;DHT22;75728;51.856;6.314;2024-03-08T05:34:22;20.20;99.90
42347;DHT22;75728;51.856;6.314;2024-03-08T05:36:48;20.20;99.90
42347;DHT22;75728;51.856;6.314;2024-03-08T05:39:18;20.20;99.90
42347;DHT22;75728;51.856;6.314;2024-03-08T05:41:44;20.20;99.90
42347;DHT22;75728;51.856;6.314;2024-03-08T05:44:11;20.20;99.90
42347;DHT22;75728;51.856;6.314;2024-03-08T05:46:38;20.20;99.90
42347;DHT22;75728;51.856;6.314;2024-03-08T05:49:04;20.20;99.90
42347;DHT22;75728;51.856;6.314;2024-03-08T05:51:34;20.20;99.90
42347;DHT22;75728;51.856;6.314;2024-03-08T05:54:05;20.20;99.90
42347;DHT22;75728;51.856;6.314;2024-03-08T05:56:31;20.20;99.90
42347;DHT22;75728;51.856;6.314;2024-03-08T05:58:57;20.20;99.90
42347;DHT22;75728;51.856;6.314;2024-03-08T06:01:26;20.20;99.90
42347;DHT22;75728;51.856;6.314;2024-03-08T06:03:53;20.20;99.90
42347;DHT22;75728;51.856;6.314;2024-03-08T06:06:21;20.20;99.90
42347;DHT22;75728;51.856;6.314;2024-03-08T06:08:47;20.20;99.90
42347;DHT22;75728;51.856;6.314;2024-03-08T06:11:15;20.20;99.90
42347;DHT22;75728;51.856;6.314;2024-03-08T06:13:42;20.20;99.90
42347;DHT22;75728;51.856;6.314;2024-03-08T06:16:08;20.20;99.90
42347;DHT22;75728;51.856;6.314;2024-03-08T06:18:35;20.20;99.90
42347;DHT22;75728;51.856;6.314;2024-03-08T06:21:04;20.20;99.90
42347;DHT22;75728;51.856;6.314;2024-03-08T06:23:33;20.20;99.90
42347;DHT22;75728;51.856;6.314;2024-03-08T06:25:59;20.20;99.90
42347;DHT22;75728;51.856;6.314;2024-03-08T06:28:24;20.20;99.90
42347;DHT22;75728;51.856;6.314;2024-03-08T06:30:50;20.20;99.90
42347;DHT22;75728;51.856;6.314;2024-03-08T06:33:17;20.20;99.90
42347;DHT22;75728;51.856;6.314;2024-03-08T06:35:43;20.20;99.90
42347;DHT22;75728;51.856;6.314;2024-03-08T06:38:09;20.20;99.90
42347;DHT22;75728;51.856;6.314;2024-03-08T06:40:35;20.20;99.90
42347;DHT22;75728;51.856;6.314;2024-03-08T06:43:00;20.20;99.90
42347;DHT22;75728;51.856;6.314;2024-03-08T06:45:26;20.20;99.90
42347;DHT22;75728;51.856;6.314;2024-03-08T06:47:52;20.20;99.90
42347;DHT22;75728;51.856;6.314;2024-03-08T06:50:17;20.30;99.90
42347;DHT22;75728;51.856;6.314;2024-03-08T06:52:43;20.20;99.90
42347;DHT22;75728;51.856;6.314;2024-03-08T06:55:12;20.30;99.90
42347;DHT22;75728;51.856;6.314;2024-03-08T06:57:40;20.20;99.90
42347;DHT22;75728;51.856;6.314;2024-03-08T07:00:07;20.30;99.90
42347;DHT22;75728;51.856;6.314;2024-03-08T07:02:41;20.20;99.90
42347;DHT22;75728;51.856;6.314;2024-03-08T07:05:07;20.20;99.90
42347;DHT22;75728;51.856;6.314;2024-03-08T07:07:36;20.30;99.90
42347;DHT22;75728;51.856;6.314;2024-03-08T07:10:01;20.30;99.90
42347;DHT22;75728;51.856;6.314;2024-03-08T07:12:27;20.20;99.90
42347;DHT22;75728;51.856;6.314;2024-03-08T07:14:53;20.30;99.90
42347;DHT22;75728;51.856;6.314;2024-03-08T07:17:18;20.30;99.90
42347;DHT22;75728;51.856;6.314;2024-03-08T07:19:44;20.30;99.90
42347;DHT22;75728;51.856;6.314;2024-03-08T07:22:10;20.30;99.90
42347;DHT22;75728;51.856;6.314;2024-03-08T07:24:36;20.30;99.90
42347;DHT22;75728;51.856;6.314;2024-03-08T07:27:06;20.40;99.90
42347;DHT22;75728;51.856;6.314;2024-03-08T07:29:35;20.30;99.90
42347;DHT22;75728;51.856;6.314;2024-03-08T07:32:00;20.40;99.90
42347;DHT22;75728;51.856;6.314;2024-03-08T07:34:38;20.40;99.90
42347;DHT22;75728;51.856;6.314;2024-03-08T07:37:05;20.40;99.90
42347;DHT22;75728;51.856;6.314;2024-03-08T07:39:31;20.10;91.50
42347;DHT22;75728;51.856;6.314;2024-03-08T07:41:57;19.90;91.30
42347;DHT22;75728;51.856;6.314;2024-03-08T07:44:23;19.70;91.40
42347;DHT22;75728;51.856;6.314;2024-03-08T07:46:49;19.50;91.40
42347;DHT22;75728;51.856;6.314;2024-03-08T07:49:15;19.40;91.50
42347;DHT22;75728;51.856;6.314;2024-03-08T07:51:40;19.30;91.60
42347;DHT22;75728;51.856;6.314;2024-03-08T07:54:07;19.20;91.60
42347;DHT22;75728;51.856;6.314;2024-03-08T07:56:34;19.20;92.00
42347;DHT22;75728;51.856;6.314;2024-03-08T07:59:02;19.20;91.80
42347;DHT22;75728;51.856;6.314;2024-03-08T08:01:29;19.20;91.60
42347;DHT22;75728;51.856;6.314;2024-03-08T08:03:56;19.20;91.70
42347;DHT22;75728;51.856;6.314;2024-03-08T08:06:22;19.20;91.50
42347;DHT22;75728;51.856;6.314;2024-03-08T08:08:47;19.20;91.70
42347;DHT22;75728;51.856;6.314;2024-03-08T08:11:13;19.10;91.60
42347;DHT22;75728;51.856;6.314;2024-03-08T08:13:42;19.10;91.50
42347;DHT22;75728;51.856;6.314;2024-03-08T08:16:09;19.20;91.60
42347;DHT22;75728;51.856;6.314;2024-03-08T08:18:36;19.20;91.40
42347;DHT22;75728;51.856;6.314;2024-03-08T08:21:02;19.20;91.60
42347;DHT22;75728;51.856;6.314;2024-03-08T08:23:29;19.20;91.60
42347;DHT22;75728;51.856;6.314;2024-03-08T08:25:55;19.20;91.70
42347;DHT22;75728;51.856;6.314;2024-03-08T08:28:21;19.20;91.50
42347;DHT22;75728;51.856;6.314;2024-03-08T08:30:46;19.30;91.30
42347;DHT22;75728;51.856;6.314;2024-03-08T08:33:14;19.30;91.30
42347;DHT22;75728;51.856;6.314;2024-03-08T08:35:40;19.40;91.50
42347;DHT22;75728;51.856;6.314;2024-03-08T08:38:06;19.70;91.40
42347;DHT22;75728;51.856;6.314;2024-03-08T08:40:36;19.90;91.20
42347;DHT22;75728;51.856;6.314;2024-03-08T08:43:02;20.20;91.30
42347;DHT22;75728;51.856;6.314;2024-03-08T08:45:32;20.30;91.10
42347;DHT22;75728;51.856;6.314;2024-03-08T08:47:59;20.20;91.30
42347;DHT22;75728;51.856;6.314;2024-03-08T08:50:27;20.10;91.20
42347;DHT22;75728;51.856;6.314;2024-03-08T08:52:54;20.00;91.20
42347;DHT22;75728;51.856;6.314;2024-03-08T08:55:20;19.90;91.50
42347;DHT22;75728;51.856;6.314;2024-03-08T08:57:47;19.80;91.40
42347;DHT22;75728;51.856;6.314;2024-03-08T09:00:20;19.70;91.70
42347;DHT22;75728;51.856;6.314;2024-03-08T09:02:47;19.70;92.10
42347;DHT22;75728;51.856;6.314;2024-03-08T09:05:13;19.70;92.00
42347;DHT22;75728;51.856;6.314;2024-03-08T09:07:43;19.60;91.70
42347;DHT22;75728;51.856;6.314;2024-03-08T09:10:10;19.60;92.00
42347;DHT22;75728;51.856;6.314;2024-03-08T09:12:40;19.60;92.20
42347;DHT22;75728;51.856;6.314;2024-03-08T09:15:06;19.60;92.00
42347;DHT22;75728;51.856;6.314;2024-03-08T09:17:37;19.60;92.10
42347;DHT22;75728;51.856;6.314;2024-03-08T09:20:06;19.60;92.40
42347;DHT22;75728;51.856;6.314;2024-03-08T09:22:32;19.60;92.20
42347;DHT22;75728;51.856;6.314;2024-03-08T09:24:58;19.60;92.30
42347;DHT22;75728;51.856;6.314;2024-03-08T09:27:23;19.60;92.30
42347;DHT22;75728;51.856;6.314;2024-03-08T09:29:49;19.60;92.40
42347;DHT22;75728;51.856;6.314;2024-03-08T09:32:15;19.60;92.30
42347;DHT22;75728;51.856;6.314;2024-03-08T09:34:40;19.60;92.40
42347;DHT22;75728;51.856;6.314;2024-03-08T09:37:06;19.60;92.20
42347;DHT22;75728;51.856;6.314;2024-03-08T09:39:32;19.60;92.20
42347;DHT22;75728;51.856;6.314;2024-03-08T09:41:59;19.60;92.90
42347;DHT22;75728;51.856;6.314;2024-03-08T09:44:25;19.60;92.40
42347;DHT22;75728;51.856;6.314;2024-03-08T09:46:51;19.60;92.40
42347;DHT22;75728;51.856;6.314;2024-03-08T09:49:19;19.60;92.40
42347;DHT22;75728;51.856;6.314;2024-03-08T09:51:46;19.60;92.40
42347;DHT22;75728;51.856;6.314;2024-03-08T09:54:12;19.60;92.50
42347;DHT22;75728;51.856;6.314;2024-03-08T09:56:39;19.60;92.60
42347;DHT22;75728;51.856;6.314;2024-03-08T09:59:07;19.60;92.60
42347;DHT22;75728;51.856;6.314;2024-03-08T10:01:51;19.60;92.40
42347;DHT22;75728;51.856;6.314;2024-03-08T10:04:24;19.60;92.50
42347;DHT22;75728;51.856;6.314;2024-03-08T10:06:51;19.60;92.50
42347;DHT22;75728;51.856;6.314;2024-03-08T10:09:17;19.60;92.80
42347;DHT22;75728;51.856;6.314;2024-03-08T10:11:44;19.60;92.90
42347;DHT22;75728;51.856;6.314;2024-03-08T10:14:10;19.60;92.90
42347;DHT22;75728;51.856;6.314;2024-03-08T10:16:37;19.50;92.50
42347;DHT22;75728;51.856;6.314;2024-03-08T10:19:03;19.60;92.70
42347;DHT22;75728;51.856;6.314;2024-03-08T10:21:31;19.60;92.70
42347;DHT22;75728;51.856;6.314;2024-03-08T10:23:58;19.60;92.20
42347;DHT22;75728;51.856;6.314;2024-03-08T10:26:24;19.60;92.50
42347;DHT22;75728;51.856;6.314;2024-03-08T10:28:51;19.60;92.30
42347;DHT22;75728;51.856;6.314;2024-03-08T10:31:20;19.60;92.60
42347;DHT22;75728;51.856;6.314;2024-03-08T10:33:47;19.60;92.60
42347;DHT22;75728;51.856;6.314;2024-03-08T10:36:14;19.60;92.60
42347;DHT22;75728;51.856;6.314;2024-03-08T10:38:41;19.60;92.50
42347;DHT22;75728;51.856;6.314;2024-03-08T10:41:09;19.60;92.20
42347;DHT22;75728;51.856;6.314;2024-03-08T10:48:55;19.60;92.10
42347;DHT22;75728;51.856;6.314;2024-03-08T10:51:24;19.60;91.90
42347;DHT22;75728;51.856;6.314;2024-03-08T10:53:52;19.60;92.10
42347;DHT22;75728;51.856;6.314;2024-03-08T10:56:18;19.70;92.40
42347;DHT22;75728;51.856;6.314;2024-03-08T10:58:44;19.70;92.20
42347;DHT22;75728;51.856;6.314;2024-03-08T11:01:10;19.70;92.30
42347;DHT22;75728;51.856;6.314;2024-03-08T11:08:54;19.60;91.70
42347;DHT22;75728;51.856;6.314;2024-03-08T11:11:31;19.60;92.00
42347;DHT22;75728;51.856;6.314;2024-03-08T11:14:01;19.60;91.80
42347;DHT22;75728;51.856;6.314;2024-03-08T11:21:36;19.60;91.90
42347;DHT22;75728;51.856;6.314;2024-03-08T11:24:14;19.60;91.90
42347;DHT22;75728;51.856;6.314;2024-03-08T11:26:42;19.60;91.40
42347;DHT22;75728;51.856;6.314;2024-03-08T11:32:17;19.60;92.10
42347;DHT22;75728;51.856;6.314;2024-03-08T11:34:46;19.60;92.80
42347;DHT22;75728;51.856;6.314;2024-03-08T11:37:17;19.60;92.20
42347;DHT22;75728;51.856;6.314;2024-03-08T11:39:54;19.60;92.00
42347;DHT22;75728;51.856;6.314;2024-03-08T11:42:25;19.60;91.90
42347;DHT22;75728;51.856;6.314;2024-03-08T11:44:54;19.60;91.80
42347;DHT22;75728;51.856;6.314;2024-03-08T11:47:20;19.60;92.20
42347;DHT22;75728;51.856;6.314;2024-03-08T11:49:46;19.70;91.40
42347;DHT22;75728;51.856;6.314;2024-03-08T11:52:14;19.70;91.30
42347;DHT22;75728;51.856;6.314;2024-03-08T11:54:41;19.60;91.80
42347;DHT22;75728;51.856;6.314;2024-03-08T11:57:08;19.50;91.70
42347;DHT22;75728;51.856;6.314;2024-03-08T11:59:35;19.50;91.40
42347;DHT22;75728;51.856;6.314;2024-03-08T12:02:05;19.50;91.60
42347;DHT22;75728;51.856;6.314;2024-03-08T12:04:32;19.50;91.50
42347;DHT22;75728;51.856;6.314;2024-03-08T12:07:01;19.50;91.40
42347;DHT22;75728;51.856;6.314;2024-03-08T12:09:35;19.60;91.90
42347;DHT22;75728;51.856;6.314;2024-03-08T12:12:02;19.60;91.30
42347;DHT22;75728;51.856;6.314;2024-03-08T12:14:33;19.60;91.10
42347;DHT22;75728;51.856;6.314;2024-03-08T12:16:59;19.60;91.70
42347;DHT22;75728;51.856;6.314;2024-03-08T12:19:30;19.60;91.90
42347;DHT22;75728;51.856;6.314;2024-03-08T12:21:55;19.60;92.00
42347;DHT22;75728;51.856;6.314;2024-03-08T12:24:21;19.60;92.50
42347;DHT22;75728;51.856;6.314;2024-03-08T12:26:48;19.70;92.00
42347;DHT22;75728;51.856;6.314;2024-03-08T12:29:20;19.90;91.20
42347;DHT22;75728;51.856;6.314;2024-03-08T12:31:52;19.90;91.60
42347;DHT22;75728;51.856;6.314;2024-03-08T12:34:19;19.80;91.60
42347;DHT22;75728;51.856;6.314;2024-03-08T12:36:48;19.80;91.60
42347;DHT22;75728;51.856;6.314;2024-03-08T12:39:16;19.80;91.60
42347;DHT22;75728;51.856;6.314;2024-03-08T12:41:43;19.80;91.80
42347;DHT22;75728;51.856;6.314;2024-03-08T12:44:09;19.80;92.00
42347;DHT22;75728;51.856;6.314;2024-03-08T12:46:37;19.80;91.90
42347;DHT22;75728;51.856;6.314;2024-03-08T12:49:09;19.80;92.20
42347;DHT22;75728;51.856;6.314;2024-03-08T12:51:36;19.90;92.40
42347;DHT22;75728;51.856;6.314;2024-03-08T12:54:03;19.90;92.10
42347;DHT22;75728;51.856;6.314;2024-03-08T12:56:30;19.90;91.90
42347;DHT22;75728;51.856;6.314;2024-03-08T12:58:57;19.90;92.30
42347;DHT22;75728;51.856;6.314;2024-03-08T13:01:23;19.90;92.40
42347;DHT22;75728;51.856;6.314;2024-03-08T13:03:49;19.90;92.50
42347;DHT22;75728;51.856;6.314;2024-03-08T13:06:18;19.90;92.20
42347;DHT22;75728;51.856;6.314;2024-03-08T13:08:47;19.90;92.00
42347;DHT22;75728;51.856;6.314;2024-03-08T13:11:13;19.90;92.30
42347;DHT22;75728;51.856;6.314;2024-03-08T13:13:43;19.90;92.20
42347;DHT22;75728;51.856;6.314;2024-03-08T13:16:09;19.90;92.50
42347;DHT22;75728;51.856;6.314;2024-03-08T13:18:36;19.90;92.20
42347;DHT22;75728;51.856;6.314;2024-03-08T13:21:03;19.90;92.10
42347;DHT22;75728;51.856;6.314;2024-03-08T13:23:36;19.90;92.50
42347;DHT22;75728;51.856;6.314;2024-03-08T13:26:08;19.90;92.70
42347;DHT22;75728;51.856;6.314;2024-03-08T13:28:34;19.90;92.30
42347;DHT22;75728;51.856;6.314;2024-03-08T13:31:06;19.90;92.30
42347;DHT22;75728;51.856;6.314;2024-03-08T13:33:32;19.80;92.20
42347;DHT22;75728;51.856;6.314;2024-03-08T13:36:02;19.80;92.30
42347;DHT22;75728;51.856;6.314;2024-03-08T13:38:28;19.80;92.00
42347;DHT22;75728;51.856;6.314;2024-03-08T13:40:54;19.80;92.40
42347;DHT22;75728;51.856;6.314;2024-03-08T13:43:20;19.80;92.00
42347;DHT22;75728;51.856;6.314;2024-03-08T13:45:46;19.80;92.60
42347;DHT22;75728;51.856;6.314;2024-03-08T13:48:11;19.80;92.40
42347;DHT22;75728;51.856;6.314;2024-03-08T13:50:38;19.80;92.30
42347;DHT22;75728;51.856;6.314;2024-03-08T13:53:05;19.80;92.70
42347;DHT22;75728;51.856;6.314;2024-03-08T13:55:30;19.80;91.90
42347;DHT22;75728;51.856;6.314;2024-03-08T13:57:57;19.80;92.00
42347;DHT22;75728;51.856;6.314;2024-03-08T14:00:23;19.80;92.40
42347;DHT22;75728;51.856;6.314;2024-03-08T14:02:51;19.80;92.50
42347;DHT22;75728;51.856;6.314;2024-03-08T14:05:16;19.80;91.90
42347;DHT22;75728;51.856;6.314;2024-03-08T14:07:45;19.80;92.40
42347;DHT22;75728;51.856;6.314;2024-03-08T14:10:14;19.80;92.10
42347;DHT22;75728;51.856;6.314;2024-03-08T14:12:40;19.80;92.60
42347;DHT22;75728;51.856;6.314;2024-03-08T14:15:08;19.80;92.20
42347;DHT22;75728;51.856;6.314;2024-03-08T14:17:35;19.80;92.00
42347;DHT22;75728;51.856;6.314;2024-03-08T14:20:01;19.80;92.20
42347;DHT22;75728;51.856;6.314;2024-03-08T14:22:27;19.80;92.40
42347;DHT22;75728;51.856;6.314;2024-03-08T14:24:53;19.80;92.50
42347;DHT22;75728;51.856;6.314;2024-03-08T14:27:21;19.80;92.50
42347;DHT22;75728;51.856;6.314;2024-03-08T14:29:48;19.80;92.50
42347;DHT22;75728;51.856;6.314;2024-03-08T14:32:13;19.80;92.50
42347;DHT22;75728;51.856;6.314;2024-03-08T14:34:39;19.80;92.60
42347;DHT22;75728;51.856;6.314;2024-03-08T14:37:05;19.80;92.30
42347;DHT22;75728;51.856;6.314;2024-03-08T14:39:37;19.90;92.00
42347;DHT22;75728;51.856;6.314;2024-03-08T14:42:02;19.90;92.30
42347;DHT22;75728;51.856;6.314;2024-03-08T14:44:29;19.90;92.10
42347;DHT22;75728;51.856;6.314;2024-03-08T14:46:58;19.90;92.30
42347;DHT22;75728;51.856;6.314;2024-03-08T14:49:25;19.90;92.30
42347;DHT22;75728;51.856;6.314;2024-03-08T14:51:55;19.90;92.10
42347;DHT22;75728;51.856;6.314;2024-03-08T14:54:20;19.90;92.30
42347;DHT22;75728;51.856;6.314;2024-03-08T14:56:49;19.90;92.40
42347;DHT22;75728;51.856;6.314;2024-03-08T14:59:17;19.90;92.30
42347;DHT22;75728;51.856;6.314;2024-03-08T15:01:45;19.90;92.30
42347;DHT22;75728;51.856;6.314;2024-03-08T15:04:11;19.90;92.50
42347;DHT22;75728;51.856;6.314;2024-03-08T15:06:40;19.90;92.30
42347;DHT22;75728;51.856;6.314;2024-03-08T15:09:08;19.90;92.30
42347;DHT22;75728;51.856;6.314;2024-03-08T15:11:40;19.90;92.20
42347;DHT22;75728;51.856;6.314;2024-03-08T15:14:07;19.90;92.30
42347;DHT22;75728;51.856;6.314;2024-03-08T15:16:37;19.90;92.50
42347;DHT22;75728;51.856;6.314;2024-03-08T15:19:05;19.90;92.10
42347;DHT22;75728;51.856;6.314;2024-03-08T15:21:31;19.90;92.30
42347;DHT22;75728;51.856;6.314;2024-03-08T15:23:56;19.90;92.30
42347;DHT22;75728;51.856;6.314;2024-03-08T15:26:22;19.90;92.10
42347;DHT22;75728;51.856;6.314;2024-03-08T15:28:48;19.90;91.80
42347;DHT22;75728;51.856;6.314;2024-03-08T15:31:17;19.90;92.10
42347;DHT22;75728;51.856;6.314;2024-03-08T15:33:46;19.90;92.20
42347;DHT22;75728;51.856;6.314;2024-03-08T15:36:17;19.90;92.20
42347;DHT22;75728;51.856;6.314;2024-03-08T15:38:43;19.90;92.10
42347;DHT22;75728;51.856;6.314;2024-03-08T15:41:09;19.90;92.40
42347;DHT22;75728;51.856;6.314;2024-03-08T15:43:39;20.00;92.20
42347;DHT22;75728;51.856;6.314;2024-03-08T15:46:06;20.00;92.30
42347;DHT22;75728;51.856;6.314;2024-03-08T15:48:32;20.00;92.30